Leroy, TX (76654)

2:17 PM CDT on July 07, 2015 (GMT -0500)
Tstc Waco | | Change Station
CLOSE
Current Station
Airport
Location: TSTC Waco Airport,
Elevation: 469 ft
Nearby Weather Stations

Elev 469 ft 31.65 °N, 97.07 °W | Updated 22 minutes ago

Partly Cloudy
Partly Cloudy
90 °F
Feels Like 96 °F
N
18
Wind Variable Wind from South

Today
High -- | Low -- °F
--% Chance of Precip.
Yesterday
High -- | Low -- °F
Precip. -- in
6:28 AM 8:36 PM
Waning Gibbous, 62% visible
Pressure 29.97 in
Visibility 10.0 miles
Clouds Mostly Cloudy 4400 ft
Heat Index 96 °F
Dew Point 72 °F
Humidity 55%
Rainfall 0.00 in
Snow Depth Not available.
UV 7 out of 12
Pollen 4.40 out of 12
Air Quality Not available.
Flu Activity Not available.
METAR KCNW 071855Z 18016KT 10SM BKN044 32/22 A2997

More Conditions Fewer Conditions

Pressure 29.97 in
Visibility 10.0 miles
Clouds Mostly Cloudy 4400 ft
Heat Index 96 °F
Dew Point 72 °F
Humidity 55%
Rainfall 0.00 in
Snow Depth Not available.
UV 7 out of 12
Pollen 4.40 out of 12
Air Quality Not available.
Flu Activity Not available.
METAR KCNW 071855Z 18016KT 10SM BKN044 32/22 A2997

More Conditions Fewer Conditions

Nowcast | as of 12:14 PM CDT on July 7, 2015

An area of showers with scattered thunderstorms will continue to affect areas mainly west of a line from Bridgeport...to Mineral Wells...to Comanche through 3 PM. Locally heavy rains may occur from Breckenridge to Comanche where additional amounts between a half inch to an inch are possible through mid afternoon. Widely scattered showers and thunderstorms are possible elsewhere. Cloud to ground lightning and gusty winds may accompany stronger thunderstorms later this afternoon. Otherwise...mostly cloudy and humid conditions will prevail across much of the area this afternoon. High temperatures will range from near 80 degrees west to the lower 90s southeast.

×

10-Day Weather Forecast

×

Almanac

Astronomy

Jul. 07, 2015 Rise Set
Actual Time
Civil Twilight
Nautical Twilight
Astronomical Twilight
Moon
Length of Visible Light
Length of Day
Tomorrow will be .
, % of the Moon is Illuminated

Today's Extremes

State Highs State Lows

Community

WunderPhotos

Upload Photos

1,835,875 photos uploaded!

WunderBlogs® & News

Nearby

Air Quality

  Air Quality AQ Index Pollutant
Not available.

Snow Depth

Station Depth Elevation

Earthquake Activity

City Distance Mag. Time & Date
Minimum magnitude displayed is 2.5.

Coastal Water Temperatures

Place Temperature

Stations

Nearby Weather Stations

Station Location Temp. Windchill Dew Point Humidity Wind Precip. Elev Updated Type